createdAt,value
2022-11-22T00:00:43.371Z,99214.28
2022-11-22T00:03:10.968Z,99215.13
2022-11-22T00:05:38.400Z,99209.91
2022-11-22T00:08:06.318Z,99209.88
2022-11-22T00:10:34.228Z,99212.47
2022-11-22T00:13:02.002Z,99215.91
2022-11-22T00:15:29.988Z,99221.97
2022-11-22T00:17:57.637Z,99217.56
2022-11-22T00:20:25.331Z,99223.66
2022-11-22T00:22:53.029Z,99221.88
2022-11-22T00:25:20.392Z,99226.22
2022-11-22T00:27:47.815Z,99227.97
2022-11-22T00:30:15.620Z,99227.97
2022-11-22T00:32:43.171Z,99227.97
2022-11-22T00:35:12.028Z,99228.03
2022-11-22T00:37:39.467Z,99224.53
2022-11-22T00:40:07.299Z,99223.75
2022-11-22T00:42:34.748Z,99214.09
2022-11-22T00:45:01.996Z,99224.50
2022-11-22T00:47:29.264Z,99219.25
2022-11-22T00:49:56.715Z,99213.22
2022-11-22T00:52:24.071Z,99205.38
2022-11-22T00:54:54.707Z,99201.03
2022-11-22T00:57:23.243Z,99197.59
2022-11-22T00:59:50.701Z,99198.50
2022-11-22T01:02:18.035Z,99185.47
2022-11-22T01:04:45.176Z,99188.03
2022-11-22T01:07:12.478Z,99186.28
2022-11-22T01:09:39.845Z,99186.28
2022-11-22T01:12:07.122Z,99174.22
2022-11-22T01:14:34.367Z,99164.69
2022-11-22T01:17:01.871Z,99181.16
2022-11-22T01:19:29.405Z,99175.97
2022-11-22T01:21:57.146Z,99183.78
2022-11-22T01:24:24.724Z,99182.06
2022-11-22T01:26:52.276Z,99182.03
2022-11-22T01:29:19.720Z,99182.03
2022-11-22T01:31:47.404Z,99193.31
2022-11-22T01:34:14.778Z,99190.81
2022-11-22T01:36:42.039Z,99200.31
2022-11-22T01:39:09.287Z,99212.41
2022-11-22T01:41:36.674Z,99209.81
2022-11-22T01:44:22.194Z,99211.59
2022-11-22T01:46:54.219Z,99202.94
2022-11-22T01:49:34.280Z,99213.31
2022-11-22T01:52:24.877Z,99202.06
2022-11-22T01:54:57.499Z,99212.38
2022-11-22T01:57:29.150Z,99208.09
2022-11-22T02:00:01.519Z,99202.00
2022-11-22T02:02:34.879Z,99196.78
2022-11-22T02:05:06.203Z,99189.91
2022-11-22T02:08:08.670Z,99182.13
2022-11-22T02:10:42.302Z,99184.66
2022-11-22T02:13:17.590Z,99169.09
2022-11-22T02:16:11.570Z,99188.19
2022-11-22T02:18:48.882Z,99182.97
2022-11-22T02:21:16.396Z,99189.88
2022-11-22T02:23:46.686Z,99195.06
2022-11-22T02:26:14.979Z,99198.59
2022-11-22T02:28:43.117Z,99188.22
2022-11-22T02:31:34.572Z,99203.75
2022-11-22T02:34:02.162Z,99199.44
2022-11-22T02:36:35.246Z,99199.38
2022-11-22T02:39:02.755Z,99201.09
2022-11-22T02:41:30.093Z,99204.56
2022-11-22T02:43:57.570Z,99203.66
2022-11-22T02:46:24.752Z,99215.81
2022-11-22T02:48:52.012Z,99204.56
2022-11-22T02:51:20.265Z,99208.00
2022-11-22T02:53:49.563Z,99194.09
2022-11-22T02:56:17.589Z,99199.34
2022-11-22T02:58:45.598Z,99211.47
2022-11-22T03:01:13.579Z,99211.47
2022-11-22T03:03:41.074Z,99197.59
2022-11-22T03:06:08.512Z,99197.56
2022-11-22T03:08:36.109Z,99199.25
2022-11-22T03:11:03.490Z,99199.22
2022-11-22T03:13:30.835Z,99200.09
2022-11-22T03:15:58.150Z,99204.44
2022-11-22T03:18:26.266Z,99201.84
2022-11-22T03:20:53.768Z,99200.97
2022-11-22T03:23:21.154Z,99206.19
2022-11-22T03:25:48.521Z,99197.50
2022-11-22T03:28:15.871Z,99207.88
2022-11-22T03:30:43.014Z,99201.81
2022-11-22T03:33:10.440Z,99215.69
2022-11-22T03:35:37.967Z,99209.63
2022-11-22T03:38:06.178Z,99206.19
2022-11-22T03:40:34.166Z,99194.97
2022-11-22T03:43:02.120Z,99197.50
2022-11-22T03:45:30.079Z,99207.13
2022-11-22T03:47:57.574Z,99205.41
2022-11-22T03:50:25.176Z,99209.75
2022-11-22T03:52:52.445Z,99212.31
2022-11-22T03:55:20.042Z,99211.47
2022-11-22T03:57:47.570Z,99208.91
2022-11-22T04:00:15.271Z,99204.56
2022-11-22T04:02:44.290Z,99218.44
2022-11-22T04:05:11.864Z,99222.78
2022-11-22T04:07:39.467Z,99227.97
2022-11-22T04:10:07.634Z,99222.75
2022-11-22T04:12:35.310Z,99220.13
2022-11-22T04:15:08.910Z,99233.16
2022-11-22T04:17:45.674Z,99230.53
2022-11-22T04:20:33.724Z,99233.13
2022-11-22T04:23:03.780Z,99231.41
2022-11-22T04:25:33.526Z,99234.84
2022-11-22T04:28:01.378Z,99233.97
2022-11-22T04:36:48.988Z,99245.28
2022-11-22T04:39:16.418Z,99243.53
2022-11-22T04:41:43.741Z,99239.22
2022-11-22T04:44:29.418Z,99242.69
2022-11-22T04:46:56.803Z,99249.66
2022-11-22T04:49:24.138Z,99246.16
2022-11-22T04:52:09.811Z,99256.56
2022-11-22T04:54:37.209Z,99242.69
2022-11-22T04:57:04.551Z,99243.56
2022-11-22T04:59:32.163Z,99236.63
2022-11-22T05:01:59.748Z,99234.00
2022-11-22T05:04:27.440Z,99241.81
2022-11-22T05:06:56.895Z,99255.66
2022-11-22T05:09:24.578Z,99257.41
2022-11-22T05:11:52.032Z,99243.53
2022-11-22T05:14:19.460Z,99240.06
2022-11-22T05:16:46.889Z,99248.75
2022-11-22T05:19:14.425Z,99260.03
2022-11-22T05:21:41.645Z,99253.94
2022-11-22T05:24:08.974Z,99253.03
2022-11-22T05:26:36.975Z,99263.47
2022-11-22T05:29:09.919Z,99261.72
2022-11-22T05:31:39.381Z,99253.06
2022-11-22T05:34:06.968Z,99260.81
2022-11-22T05:36:35.311Z,99266.03
2022-11-22T05:39:03.490Z,99268.66
2022-11-22T05:41:31.089Z,99273.00
2022-11-22T05:43:58.497Z,99259.97
2022-11-22T05:46:28.712Z,99277.28
2022-11-22T05:48:57.931Z,99277.25
2022-11-22T05:51:34.103Z,99278.97
2022-11-22T05:54:02.792Z,99276.38
2022-11-22T05:56:30.407Z,99283.28
2022-11-22T05:58:57.827Z,99271.16
2022-11-22T06:01:25.441Z,99280.69
2022-11-22T06:03:54.032Z,99276.41
2022-11-22T06:06:21.882Z,99293.69
2022-11-22T06:08:49.455Z,99292.84
2022-11-22T06:11:20.049Z,99293.78
2022-11-22T06:13:50.027Z,99298.03
2022-11-22T06:16:18.301Z,99300.66
2022-11-22T06:18:45.999Z,99298.06
2022-11-22T06:21:19.467Z,99291.13
2022-11-22T06:23:46.985Z,99304.13
2022-11-22T06:26:17.519Z,99300.63
2022-11-22T06:28:45.977Z,99304.97
2022-11-22T06:31:21.526Z,99304.16
2022-11-22T06:33:49.544Z,99299.00
2022-11-22T06:36:21.504Z,99311.97
2022-11-22T06:38:49.265Z,99311.09
2022-11-22T06:41:20.878Z,99314.56
2022-11-22T06:43:50.241Z,99318.03
2022-11-22T06:46:19.387Z,99318.06
2022-11-22T06:48:47.459Z,99318.13
2022-11-22T06:51:24.336Z,99323.28
2022-11-22T06:53:52.650Z,99331.06
2022-11-22T06:56:29.130Z,99335.41
2022-11-22T06:58:57.278Z,99335.38
2022-11-22T07:01:27.722Z,99332.81
2022-11-22T07:03:59.218Z,99334.53
2022-11-22T07:06:29.059Z,99336.25
2022-11-22T07:08:57.182Z,99332.81
2022-11-22T07:11:28.082Z,99330.19
2022-11-22T07:14:00.399Z,99336.28
2022-11-22T07:16:31.257Z,99328.44
2022-11-22T07:19:01.501Z,99331.94
2022-11-22T07:21:29.054Z,99338.00
2022-11-22T07:23:56.368Z,99328.44
2022-11-22T07:26:25.946Z,99342.34
2022-11-22T07:28:53.558Z,99342.28
2022-11-22T07:31:21.606Z,99330.19
2022-11-22T07:33:49.585Z,99346.63
2022-11-22T07:36:19.529Z,99334.44
2022-11-22T07:38:48.092Z,99342.19
2022-11-22T07:41:17.439Z,99348.22
2022-11-22T07:43:47.055Z,99337.81
2022-11-22T07:46:21.316Z,99326.41
2022-11-22T07:48:49.772Z,99344.53
2022-11-22T07:51:17.620Z,99347.06
2022-11-22T07:53:45.602Z,99351.22
2022-11-22T07:56:13.807Z,99369.25
2022-11-22T07:58:41.563Z,99357.78
2022-11-22T08:01:11.368Z,99354.81
2022-11-22T08:03:39.150Z,99362.31
2022-11-22T08:06:09.954Z,99349.72
2022-11-22T08:08:38.151Z,99346.69
2022-11-22T08:11:06.233Z,99348.00
2022-11-22T08:13:35.078Z,99357.06
2022-11-22T08:16:08.484Z,99356.41
2022-11-22T08:18:37.165Z,99351.09
2022-11-22T08:21:11.763Z,99360.81
2022-11-22T08:23:40.785Z,99366.97
2022-11-22T08:26:12.501Z,99374.47
2022-11-22T08:28:40.753Z,99377.47
2022-11-22T08:31:14.328Z,99384.31
2022-11-22T08:33:42.485Z,99391.25
2022-11-22T08:36:10.647Z,99395.44
2022-11-22T08:38:38.752Z,99389.31
2022-11-22T08:41:07.300Z,99394.28
2022-11-22T08:43:35.098Z,99388.53
2022-11-22T08:46:03.297Z,99392.69
2022-11-22T08:48:33.105Z,99382.81
2022-11-22T08:51:03.275Z,99401.28
2022-11-22T08:53:33.028Z,99384.63
2022-11-22T08:56:02.056Z,99401.50
2022-11-22T08:58:31.354Z,99400.94
2022-11-22T09:01:08.048Z,99408.75
2022-11-22T09:03:37.928Z,99410.41
2022-11-22T09:09:15.215Z,99406.72
2022-11-22T09:11:44.893Z,99412.44
2022-11-22T09:14:12.467Z,99414.28
2022-11-22T09:16:40.093Z,99418.84
2022-11-22T09:19:07.603Z,99409.94
2022-11-22T09:21:35.149Z,99415.53
2022-11-22T09:24:02.648Z,99419.91
2022-11-22T09:26:31.141Z,99406.66
2022-11-22T09:28:58.734Z,99410.47
2022-11-22T09:31:26.214Z,99409.94
2022-11-22T09:33:53.586Z,99411.00
2022-11-22T09:36:28.930Z,99394.91
2022-11-22T09:38:57.062Z,99390.28
2022-11-22T09:41:47.083Z,99380.78
2022-11-22T09:44:31.119Z,99376.53
2022-11-22T09:47:04.950Z,99383.53
2022-11-22T09:49:59.060Z,99381.28
2022-11-22T09:52:44.517Z,99390.31
2022-11-22T09:55:31.974Z,99385.59
2022-11-22T09:58:33.564Z,99385.16
2022-11-22T10:01:14.747Z,99389.31
2022-11-22T10:03:54.751Z,99401.16
2022-11-22T10:06:34.095Z,99402.88
2022-11-22T10:09:26.432Z,99404.66
2022-11-22T10:12:02.003Z,99406.88
2022-11-22T10:14:47.617Z,99396.31
2022-11-22T10:17:20.975Z,99407.53
2022-11-22T10:20:06.140Z,99397.78
2022-11-22T10:22:35.545Z,99403.88
2022-11-22T10:25:13.593Z,99405.38
2022-11-22T10:27:42.139Z,99403.38
2022-11-22T10:30:16.600Z,99406.28
2022-11-22T10:33:12.125Z,99417.38
2022-11-22T10:35:42.615Z,99391.94
2022-11-22T10:38:30.096Z,99398.63
2022-11-22T10:41:00.525Z,99408.69
2022-11-22T10:43:40.086Z,99401.47
2022-11-22T10:46:18.927Z,99392.34
2022-11-22T10:49:35.786Z,99408.09
2022-11-22T10:52:22.155Z,99386.97
2022-11-22T10:55:09.726Z,99386.69
2022-11-22T10:57:56.504Z,99387.91
2022-11-22T11:00:25.951Z,99388.84
2022-11-22T11:03:21.185Z,99390.88
2022-11-22T11:06:21.654Z,99386.91
2022-11-22T11:09:23.803Z,99392.28
2022-11-22T11:11:40.256Z,99396.97
2022-11-22T11:14:18.706Z,99395.06
2022-11-22T11:16:47.346Z,99394.16
2022-11-22T11:19:18.485Z,99396.13
2022-11-22T11:21:46.351Z,99389.34
2022-11-22T11:24:15.427Z,99380.38
2022-11-22T11:26:51.512Z,99384.06
2022-11-22T11:29:18.989Z,99391.38
2022-11-22T11:31:49.707Z,99379.97
2022-11-22T11:34:26.734Z,99389.69
2022-11-22T11:36:54.641Z,99377.38
2022-11-22T11:39:33.396Z,99374.09
2022-11-22T11:42:01.688Z,99399.84
2022-11-22T11:44:37.269Z,99380.13
2022-11-22T11:47:05.821Z,99395.09
2022-11-22T11:49:34.817Z,99386.03
2022-11-22T11:52:10.173Z,99388.72
2022-11-22T11:54:40.683Z,99386.19
2022-11-22T11:57:14.238Z,99377.16
2022-11-22T11:59:45.394Z,99383.38
2022-11-22T12:02:23.814Z,99384.34
2022-11-22T12:05:04.672Z,99388.16
2022-11-22T12:07:35.484Z,99374.38
2022-11-22T12:10:40.412Z,99375.22
2022-11-22T12:13:22.742Z,99374.75
2022-11-22T12:16:13.876Z,99387.84
2022-11-22T12:18:56.628Z,99381.16
2022-11-22T12:21:30.104Z,99370.28
2022-11-22T12:24:34.838Z,99369.97
2022-11-22T12:26:57.211Z,99361.94
2022-11-22T12:29:25.193Z,99375.34
2022-11-22T12:31:54.511Z,99367.00
2022-11-22T12:34:36.707Z,99381.41
2022-11-22T12:37:18.915Z,99364.00
2022-11-22T12:39:53.570Z,99359.28
2022-11-22T12:42:30.487Z,99370.69
2022-11-22T12:45:06.371Z,99375.19
2022-11-22T12:47:40.580Z,99376.25
2022-11-22T12:50:17.083Z,99359.66
2022-11-22T12:53:10.234Z,99360.44
2022-11-22T12:55:48.169Z,99371.41
2022-11-22T12:58:24.452Z,99369.28
2022-11-22T13:01:15.677Z,99362.94
2022-11-22T13:03:49.479Z,99365.50
2022-11-22T13:06:23.627Z,99363.78
2022-11-22T13:09:03.666Z,99359.63
2022-11-22T13:11:46.779Z,99359.63
2022-11-22T13:14:29.369Z,99371.94
2022-11-22T13:16:57.303Z,99367.56
2022-11-22T13:19:26.816Z,99374.28
2022-11-22T13:22:16.108Z,99372.34
2022-11-22T13:24:55.775Z,99369.69
2022-11-22T13:27:31.752Z,99363.69
2022-11-22T13:30:01.859Z,99364.59
2022-11-22T13:32:34.155Z,99358.50
2022-11-22T13:35:15.945Z,99369.81
2022-11-22T13:37:50.186Z,99363.53
2022-11-22T13:40:28.589Z,99359.78
2022-11-22T13:43:21.208Z,99357.88
2022-11-22T13:45:50.253Z,99366.56
2022-11-22T13:48:40.180Z,99351.53
2022-11-22T13:51:18.690Z,99354.16
2022-11-22T13:53:48.101Z,99354.88
2022-11-22T13:56:15.454Z,99358.41
2022-11-22T13:58:52.202Z,99368.75
2022-11-22T14:01:35.130Z,99363.56
2022-11-22T14:04:38.962Z,99347.13
2022-11-22T14:07:23.683Z,99349.13
2022-11-22T14:09:51.296Z,99350.91
2022-11-22T14:12:36.289Z,99356.44
2022-11-22T14:15:25.014Z,99348.69
2022-11-22T14:18:20.470Z,99359.41
2022-11-22T14:21:14.584Z,99350.69
2022-11-22T14:23:53.743Z,99352.53
2022-11-22T14:26:28.743Z,99355.88
2022-11-22T14:29:23.587Z,99347.84
2022-11-22T14:32:13.148Z,99346.00
2022-11-22T14:35:02.403Z,99351.09
2022-11-22T14:37:29.896Z,99344.34
2022-11-22T14:40:10.138Z,99350.41
2022-11-22T14:42:40.190Z,99362.59
2022-11-22T14:45:10.345Z,99360.06
2022-11-22T14:47:44.249Z,99354.03
2022-11-22T14:50:38.234Z,99360.31
2022-11-22T14:53:28.149Z,99362.16
2022-11-22T14:56:17.944Z,99361.38
2022-11-22T14:59:15.553Z,99355.66
2022-11-22T15:02:07.568Z,99358.28
2022-11-22T15:09:10.825Z,99359.16
2022-11-22T15:09:12.525Z,99366.13
2022-11-22T15:11:01.752Z,99362.06
2022-11-22T15:13:29.157Z,99357.03
2022-11-22T15:59:40.802Z,99375.44
2022-11-22T16:02:25.703Z,99371.25
2022-11-22T16:06:04.400Z,99375.53
2022-11-22T16:07:48.274Z,99381.94
2022-11-22T16:10:23.465Z,99388.97
2022-11-22T16:12:51.982Z,99391.78
2022-11-22T16:15:39.961Z,99393.63
2022-11-22T16:18:16.829Z,99397.97
2022-11-22T16:21:19.209Z,99403.22
2022-11-22T16:23:47.152Z,99403.22
2022-11-22T16:26:17.643Z,99408.56
2022-11-22T16:28:46.795Z,99406.00
2022-11-22T16:31:24.084Z,99413.84
2022-11-22T16:33:53.451Z,99408.75
2022-11-22T16:36:22.667Z,99399.91
2022-11-22T16:38:50.892Z,99405.06
2022-11-22T16:41:26.541Z,99406.88
2022-11-22T16:43:56.527Z,99399.31
2022-11-22T16:46:23.897Z,99394.25
2022-11-22T16:48:51.408Z,99391.63
2022-11-22T16:51:23.835Z,99383.72
2022-11-22T16:53:53.438Z,99383.81
2022-11-22T16:56:25.513Z,99383.06
2022-11-22T16:58:55.652Z,99386.72
2022-11-22T17:01:26.557Z,99387.69
2022-11-22T17:03:56.620Z,99395.59
2022-11-22T17:06:26.895Z,99399.09
2022-11-22T17:08:56.376Z,99393.97
2022-11-22T17:11:26.321Z,99399.16
2022-11-22T17:13:54.503Z,99397.38
2022-11-22T17:16:21.882Z,99389.72
2022-11-22T17:18:49.153Z,99392.25
2022-11-22T17:21:35.863Z,99391.47
2022-11-22T17:24:22.035Z,99382.78
2022-11-22T17:26:49.689Z,99385.41
2022-11-22T17:29:42.935Z,99396.63
2022-11-22T17:32:04.984Z,99408.75
2022-11-22T17:34:32.679Z,99415.91
2022-11-22T17:37:00.451Z,99404.69
2022-11-22T17:39:28.103Z,99396.94
2022-11-22T17:41:55.711Z,99388.31
2022-11-22T17:44:23.081Z,99392.75
2022-11-22T17:46:50.368Z,99399.72
2022-11-22T17:49:17.512Z,99395.28
2022-11-22T17:51:46.576Z,99406.63
2022-11-22T17:54:13.978Z,99401.34
2022-11-22T17:56:41.454Z,99396.97
2022-11-22T17:59:08.692Z,99390.91
2022-11-22T18:01:36.999Z,99402.13
2022-11-22T18:04:04.464Z,99401.22
2022-11-22T18:06:32.633Z,99418.53
2022-11-22T18:09:01.017Z,99420.31
2022-11-22T18:11:28.528Z,99417.69
2022-11-22T18:13:55.705Z,99412.53
2022-11-22T18:16:28.659Z,99419.50
2022-11-22T18:18:58.080Z,99423.03
2022-11-22T18:21:32.041Z,99429.16
2022-11-22T18:24:00.338Z,99424.91
2022-11-22T18:26:43.964Z,99431.84
2022-11-22T18:32:01.406Z,99428.44
2022-11-22T18:34:30.215Z,99432.78
2022-11-22T18:37:01.844Z,99438.84
2022-11-22T18:39:32.358Z,99444.09
2022-11-22T18:42:00.087Z,99435.44
2022-11-22T18:44:27.666Z,99438.78
2022-11-22T18:46:55.442Z,99433.56
2022-11-22T18:49:23.062Z,99417.94
2022-11-22T18:51:50.467Z,99417.19
2022-11-22T18:54:18.441Z,99410.19
2022-11-22T18:56:45.753Z,99403.22
2022-11-22T18:59:13.627Z,99412.94
2022-11-22T19:01:41.392Z,99421.63
2022-11-22T19:04:13.086Z,99412.03
2022-11-22T19:06:41.967Z,99402.56
2022-11-22T19:09:10.038Z,99406.88
2022-11-22T19:11:37.714Z,99401.75
2022-11-22T19:14:05.537Z,99411.28
2022-11-22T19:16:33.063Z,99407.84
2022-11-22T19:19:00.328Z,99405.16
2022-11-22T19:21:28.882Z,99425.97
2022-11-22T19:23:57.351Z,99431.16
2022-11-22T19:26:27.420Z,99429.38
2022-11-22T19:28:56.448Z,99424.22
2022-11-22T19:31:29.320Z,99424.22
2022-11-22T19:33:58.538Z,99424.25
2022-11-22T19:36:33.470Z,99417.34
2022-11-22T19:39:04.219Z,99430.38
2022-11-22T19:41:32.095Z,99426.94
2022-11-22T19:44:00.256Z,99422.59
2022-11-22T19:46:28.218Z,99419.16
2022-11-22T19:48:57.898Z,99418.25
2022-11-22T19:51:27.218Z,99420.88
2022-11-22T19:53:58.920Z,99412.16
2022-11-22T19:56:30.349Z,99424.34
2022-11-22T19:59:00.042Z,99419.97
2022-11-22T20:01:30.305Z,99415.78
2022-11-22T20:04:00.726Z,99409.69
2022-11-22T20:06:28.445Z,99407.06
2022-11-22T20:09:09.874Z,99403.56
2022-11-22T20:11:39.759Z,99400.94
2022-11-22T20:14:08.158Z,99400.03
2022-11-22T20:16:38.465Z,99400.03
2022-11-22T20:19:07.620Z,99402.66
2022-11-22T20:21:36.107Z,99403.44
2022-11-22T20:24:05.429Z,99400.88
2022-11-22T20:26:33.489Z,99406.09
2022-11-22T20:29:06.858Z,99400.91
2022-11-22T20:31:36.973Z,99410.44
2022-11-22T20:34:04.871Z,99410.34
2022-11-22T20:36:34.271Z,99405.16
2022-11-22T20:39:07.001Z,99406.03
2022-11-22T20:41:40.644Z,99404.28
2022-11-22T20:44:12.407Z,99402.50
2022-11-22T20:46:40.562Z,99393.81
2022-11-22T20:49:07.966Z,99399.03
2022-11-22T20:51:38.772Z,99400.72
2022-11-22T20:54:07.731Z,99405.06
2022-11-22T20:56:35.788Z,99402.50
2022-11-22T20:59:03.949Z,99403.34
2022-11-22T21:01:31.984Z,99399.06
2022-11-22T21:03:59.608Z,99401.66
2022-11-22T21:06:28.011Z,99396.41
2022-11-22T21:08:55.477Z,99393.81
2022-11-22T21:11:31.102Z,99385.97
2022-11-22T21:13:58.969Z,99390.28
2022-11-22T21:16:28.802Z,99391.97
2022-11-22T21:19:01.757Z,99387.66
2022-11-22T21:21:30.223Z,99392.88
2022-11-22T21:24:00.121Z,99386.84
2022-11-22T21:26:28.229Z,99385.97
2022-11-22T21:28:56.354Z,99395.50
2022-11-22T21:31:24.157Z,99411.13
2022-11-22T21:33:52.040Z,99405.03
2022-11-22T21:36:20.662Z,99402.31
2022-11-22T21:38:48.481Z,99404.97
2022-11-22T21:44:06.301Z,99391.94
2022-11-22T21:46:33.829Z,99395.44
2022-11-22T21:49:01.285Z,99388.53
2022-11-22T21:51:28.548Z,99389.44
2022-11-22T21:53:56.344Z,99398.13
2022-11-22T21:56:26.180Z,99400.72
2022-11-22T21:58:54.568Z,99399.88
2022-11-22T22:01:22.525Z,99398.06
2022-11-22T22:03:50.297Z,99400.72
2022-11-22T22:06:17.755Z,99405.91
2022-11-22T22:08:45.330Z,99399.84
2022-11-22T22:11:12.855Z,99395.50
2022-11-22T22:13:40.372Z,99401.56
2022-11-22T22:16:08.489Z,99404.16
2022-11-22T22:18:37.616Z,99395.38
2022-11-22T22:21:07.812Z,99391.00
2022-11-22T22:23:37.104Z,99388.41
2022-11-22T22:26:07.768Z,99381.47
2022-11-22T22:28:37.165Z,99389.25
2022-11-22T22:31:09.770Z,99381.44
2022-11-22T22:33:40.722Z,99382.19
2022-11-22T22:36:09.747Z,99386.59
2022-11-22T22:38:38.449Z,99378.81
2022-11-22T22:41:06.869Z,99380.44
2022-11-22T22:43:37.179Z,99372.63
2022-11-22T22:46:12.269Z,99370.03
2022-11-22T22:48:40.667Z,99375.25
2022-11-22T22:51:13.466Z,99363.06
2022-11-22T22:53:41.746Z,99361.28
2022-11-22T22:56:10.762Z,99357.81
2022-11-22T22:58:38.828Z,99356.94
2022-11-22T23:01:06.219Z,99354.34
2022-11-22T23:03:33.638Z,99360.44
2022-11-22T23:06:05.445Z,99357.81
2022-11-22T23:08:32.965Z,99351.75
2022-11-22T23:11:03.891Z,99350.03
2022-11-22T23:13:31.297Z,99348.31
2022-11-22T23:16:00.275Z,99350.09
2022-11-22T23:18:28.075Z,99353.50
2022-11-22T23:21:00.153Z,99344.78
2022-11-22T23:23:28.263Z,99343.94
2022-11-22T23:25:55.993Z,99351.75
2022-11-22T23:28:23.418Z,99351.69
2022-11-22T23:30:51.096Z,99344.63
2022-11-22T23:33:18.547Z,99343.84
2022-11-22T23:35:45.840Z,99349.06
2022-11-22T23:38:13.150Z,99349.00
2022-11-22T23:40:40.501Z,99346.47
2022-11-22T23:43:07.764Z,99344.75
2022-11-22T23:45:35.140Z,99343.09
2022-11-22T23:48:02.724Z,99339.56
2022-11-22T23:50:33.696Z,99336.06
2022-11-22T23:53:03.588Z,99328.25
2022-11-22T23:55:30.948Z,99323.94
2022-11-22T23:57:58.855Z,99327.44
